createdAt,value
2018-02-24T00:01:48.681Z,71.77
2018-02-24T00:04:19.399Z,68.72
2018-02-24T00:06:49.675Z,70.15
2018-02-24T00:09:19.760Z,68.40
2018-02-24T00:11:50.103Z,68.57
2018-02-24T00:14:21.474Z,70.00
2018-02-24T00:16:52.782Z,68.80
2018-02-24T00:19:22.969Z,73.82
2018-02-24T00:21:53.587Z,73.22
2018-02-24T00:24:24.541Z,72.32
2018-02-24T00:26:55.841Z,74.68
2018-02-24T00:29:26.843Z,68.22
2018-02-24T00:31:57.645Z,78.25
2018-02-24T00:34:28.644Z,74.45
2018-02-24T00:36:59.595Z,73.07
2018-02-24T00:39:30.026Z,78.80
2018-02-24T00:42:01.262Z,65.37
2018-02-24T00:44:32.710Z,68.90
2018-02-24T00:47:02.998Z,70.45
2018-02-24T00:49:34.290Z,76.53
2018-02-24T00:52:04.890Z,70.78
2018-02-24T00:54:35.950Z,65.37
2018-02-24T00:57:07.556Z,75.45
2018-02-24T00:59:38.843Z,75.50
2018-02-24T01:02:09.979Z,71.03
2018-02-24T01:04:40.988Z,69.57
2018-02-24T01:07:11.104Z,72.37
2018-02-24T01:09:42.732Z,72.50
2018-02-24T01:12:13.294Z,70.90
2018-02-24T01:14:44.913Z,62.17
2018-02-24T01:17:15.073Z,76.40
2018-02-24T01:19:45.686Z,67.70
2018-02-24T01:22:15.902Z,71.37
2018-02-24T01:24:46.808Z,70.87
2018-02-24T01:27:17.470Z,70.65
2018-02-24T01:29:48.456Z,73.20
2018-02-24T01:32:18.694Z,74.78
2018-02-24T01:34:48.894Z,72.43
2018-02-24T01:37:19.803Z,69.87
2018-02-24T01:39:59.095Z,76.20
2018-02-24T01:42:33.528Z,76.40
2018-02-24T01:46:28.294Z,78.73
2018-02-24T01:48:59.342Z,74.07
2018-02-24T01:53:18.766Z,75.50
2018-02-24T01:55:49.258Z,71.50
2018-02-24T01:58:20.164Z,73.93
2018-02-24T02:00:51.783Z,70.07
2018-02-24T02:03:23.430Z,76.40
2018-02-24T02:05:54.436Z,71.70
2018-02-24T02:08:24.936Z,73.97
2018-02-24T02:10:56.123Z,78.72
2018-02-24T02:13:26.252Z,77.97
2018-02-24T02:15:57.150Z,78.12
2018-02-24T02:18:27.271Z,74.55
2018-02-24T02:20:57.368Z,79.60
2018-02-24T02:23:28.622Z,82.28
2018-02-24T02:25:59.466Z,73.45
2018-02-24T02:28:30.293Z,76.45
2018-02-24T02:31:01.247Z,83.65
2018-02-24T02:33:32.176Z,74.10
2018-02-24T02:36:02.256Z,80.87
2018-02-24T02:38:32.580Z,77.75
2018-02-24T02:41:02.698Z,86.00
2018-02-24T02:43:33.048Z,75.83
2018-02-24T02:46:03.709Z,80.43
2018-02-24T02:48:34.263Z,82.97
2018-02-24T02:51:05.158Z,79.15
2018-02-24T02:53:35.771Z,84.47
2018-02-24T02:56:07.218Z,86.57
2018-02-24T02:58:38.204Z,81.63
2018-02-24T03:01:09.324Z,85.50
2018-02-24T03:03:40.868Z,90.15
2018-02-24T03:06:11.604Z,81.40
2018-02-24T03:08:42.350Z,81.45
2018-02-24T03:11:13.559Z,82.47
2018-02-24T03:13:43.902Z,77.50
2018-02-24T03:16:14.573Z,78.30
2018-02-24T03:18:45.249Z,83.20
2018-02-24T03:21:16.080Z,82.45
2018-02-24T03:23:46.506Z,71.68
2018-02-24T03:26:18.019Z,80.15
2018-02-24T03:28:49.016Z,80.93
2018-02-24T03:31:19.946Z,85.25
2018-02-24T03:33:50.960Z,91.93
2018-02-24T03:36:21.511Z,87.13
2018-02-24T03:38:51.804Z,91.30
2018-02-24T03:41:22.105Z,80.97
2018-02-24T03:43:54.435Z,89.82
2018-02-24T03:46:25.249Z,82.32
2018-02-24T03:48:55.421Z,87.12
2018-02-24T03:51:25.904Z,82.32
2018-02-24T03:53:56.540Z,83.75
2018-02-24T03:56:26.666Z,83.63
2018-02-24T03:58:57.602Z,84.20
2018-02-24T04:01:28.717Z,82.00
2018-02-24T04:03:59.029Z,82.93
2018-02-24T04:06:29.467Z,78.43
2018-02-24T04:09:00.638Z,80.05
2018-02-24T04:11:32.637Z,88.82
2018-02-24T04:14:03.287Z,79.87
2018-02-24T04:16:34.644Z,81.37
2018-02-24T04:19:05.522Z,79.45
2018-02-24T04:21:35.810Z,76.77
2018-02-24T04:24:07.218Z,76.27
2018-02-24T04:26:38.558Z,81.10
2018-02-24T04:29:09.608Z,82.57
2018-02-24T04:31:40.154Z,79.00
2018-02-24T04:34:11.475Z,81.40
2018-02-24T04:36:42.330Z,74.67
2018-02-24T04:39:12.994Z,83.00
2018-02-24T04:41:44.093Z,80.20
2018-02-24T04:44:14.858Z,81.70
2018-02-24T04:46:46.041Z,75.30
2018-02-24T04:49:18.469Z,83.62
2018-02-24T04:51:49.791Z,84.60
2018-02-24T04:54:20.560Z,80.70
2018-02-24T04:56:51.241Z,90.43
2018-02-24T04:59:22.229Z,85.97
2018-02-24T05:01:52.654Z,80.80
2018-02-24T05:04:23.982Z,74.87
2018-02-24T05:06:55.673Z,82.05
2018-02-24T05:09:25.886Z,86.87
2018-02-24T05:11:57.636Z,81.37
2018-02-24T05:14:31.407Z,76.80
2018-02-24T05:17:01.873Z,71.12
2018-02-24T05:19:32.630Z,74.32
2018-02-24T05:22:03.742Z,79.00
2018-02-24T05:24:34.632Z,77.70
2018-02-24T05:27:05.426Z,80.55
2018-02-24T05:29:36.198Z,77.53
2018-02-24T05:32:06.638Z,72.75
2018-02-24T05:34:37.650Z,71.78
2018-02-24T05:37:08.174Z,75.07
2018-02-24T05:39:38.741Z,76.53
2018-02-24T05:42:10.719Z,74.55
2018-02-24T05:44:42.957Z,81.20
2018-02-24T05:47:13.646Z,70.60
2018-02-24T05:49:44.966Z,76.43
2018-02-24T05:52:15.479Z,67.13
2018-02-24T05:54:47.846Z,78.95
2018-02-24T05:57:18.918Z,74.25
2018-02-24T05:59:53.378Z,79.60
2018-02-24T06:02:23.906Z,81.07
2018-02-24T06:04:54.774Z,72.78
2018-02-24T06:07:26.052Z,74.97
2018-02-24T06:09:56.843Z,76.27
2018-02-24T06:12:27.388Z,67.12
2018-02-24T06:15:04.205Z,64.55
2018-02-24T06:17:45.966Z,76.03
2018-02-24T06:20:16.935Z,70.68
2018-02-24T06:22:48.633Z,71.28
2018-02-24T06:25:19.480Z,70.72
2018-02-24T06:27:50.405Z,71.55
2018-02-24T06:30:21.519Z,66.63
2018-02-24T06:32:52.513Z,73.97
2018-02-24T06:35:23.025Z,60.92
2018-02-24T06:37:56.017Z,66.00
2018-02-24T06:40:28.995Z,68.07
2018-02-24T06:42:59.494Z,65.23
2018-02-24T06:45:31.034Z,65.10
2018-02-24T06:48:02.063Z,68.70
2018-02-24T06:50:32.360Z,68.35
2018-02-24T06:53:03.466Z,65.87
2018-02-24T06:55:34.358Z,68.30
2018-02-24T06:58:06.547Z,61.37
2018-02-24T07:00:39.294Z,68.12
2018-02-24T07:03:10.660Z,70.00
2018-02-24T07:05:42.636Z,75.40
2018-02-24T07:08:13.399Z,62.57
2018-02-24T07:10:44.373Z,66.15
2018-02-24T07:13:19.250Z,70.90
2018-02-24T07:16:01.346Z,72.22
2018-02-24T07:18:32.032Z,67.45
2018-02-24T07:21:03.092Z,68.87
2018-02-24T07:23:34.098Z,67.57
2018-02-24T07:26:05.094Z,61.37
2018-02-24T07:28:35.301Z,67.43
2018-02-24T07:31:08.686Z,72.75
2018-02-24T07:33:40.654Z,67.90
2018-02-24T07:36:11.118Z,64.07
2018-02-24T07:38:46.140Z,74.40
2018-02-24T07:41:18.307Z,65.62
2018-02-24T07:43:48.834Z,69.47
2018-02-24T07:46:28.497Z,69.18
2018-02-24T07:48:59.193Z,77.80
2018-02-24T07:51:30.170Z,69.93
2018-02-24T07:54:00.390Z,71.25
2018-02-24T07:56:31.352Z,75.85
2018-02-24T07:59:03.260Z,68.62
2018-02-24T08:01:35.310Z,65.82
2018-02-24T08:04:06.189Z,64.62
2018-02-24T08:06:36.571Z,66.20
2018-02-24T08:09:07.436Z,65.60
2018-02-24T08:11:38.408Z,64.73
2018-02-24T08:18:20.951Z,69.20
2018-02-24T08:20:52.747Z,63.47
2018-02-24T08:23:27.507Z,64.30
2018-02-24T08:25:58.176Z,68.67
2018-02-24T08:28:29.292Z,65.93
2018-02-24T08:31:00.445Z,70.07
2018-02-24T08:33:32.611Z,65.23
2018-02-24T08:43:13.362Z,61.72
2018-02-24T08:45:43.647Z,56.37
2018-02-24T08:48:14.770Z,62.70
2018-02-24T08:50:46.193Z,60.20
2018-02-24T08:53:18.641Z,66.90
2018-02-24T08:55:49.741Z,57.30
2018-02-24T08:58:54.919Z,60.25
2018-02-24T09:01:38.157Z,62.80
2018-02-24T09:04:09.740Z,63.05
2018-02-24T09:06:40.731Z,61.35
2018-02-24T09:09:11.479Z,59.33
2018-02-24T09:11:43.124Z,61.15
2018-02-24T09:14:47.014Z,67.32
2018-02-24T09:17:18.218Z,59.10
2018-02-24T09:19:50.090Z,59.60
2018-02-24T09:22:21.633Z,60.70
2018-02-24T09:24:52.884Z,58.28
2018-02-24T09:27:24.845Z,61.73
2018-02-24T09:29:55.714Z,61.25
2018-02-24T09:32:26.750Z,62.88
2018-02-24T09:35:02.151Z,69.07
2018-02-24T09:37:39.786Z,56.95
2018-02-24T09:40:14.815Z,65.53
2018-02-24T09:42:48.002Z,58.90
2018-02-24T09:45:22.174Z,60.72
2018-02-24T09:48:03.105Z,60.65
2018-02-24T09:50:37.388Z,59.13
2018-02-24T09:53:11.201Z,62.03
2018-02-24T09:55:46.371Z,61.67
2018-02-24T09:58:18.834Z,62.65
2018-02-24T10:00:53.456Z,58.08
2018-02-24T10:03:26.216Z,56.97
2018-02-24T10:06:08.060Z,58.15
2018-02-24T10:08:46.013Z,62.13
2018-02-24T10:11:23.866Z,66.70
2018-02-24T10:14:02.538Z,67.63
2018-02-24T10:16:39.645Z,66.05
2018-02-24T10:19:21.554Z,61.17
2018-02-24T10:21:54.110Z,58.13
2018-02-24T10:24:27.401Z,57.25
2018-02-24T10:29:57.607Z,55.50
2018-02-24T10:32:28.553Z,60.63
2018-02-24T10:35:03.597Z,58.80
2018-02-24T10:37:38.409Z,64.90
2018-02-24T10:47:20.435Z,59.63
2018-02-24T10:49:51.097Z,63.20
2018-02-24T10:52:22.285Z,58.22
2018-02-24T10:54:54.350Z,63.67
2018-02-24T10:57:29.960Z,63.13
2018-02-24T11:00:07.843Z,65.57
2018-02-24T11:05:48.229Z,60.28
2018-02-24T11:08:21.814Z,59.00
2018-02-24T11:10:55.104Z,61.15
2018-02-24T11:16:23.816Z,51.00
2018-02-24T11:19:04.977Z,55.50
2018-02-24T11:21:40.863Z,54.30
2018-02-24T11:24:16.956Z,57.53
2018-02-24T11:26:52.700Z,54.67
2018-02-24T11:29:25.423Z,56.90
2018-02-24T11:31:57.427Z,55.50
2018-02-24T11:34:35.737Z,64.43
2018-02-24T11:37:12.295Z,59.40
2018-02-24T11:39:45.296Z,51.47
2018-02-24T11:42:19.054Z,60.67
2018-02-24T11:44:52.331Z,56.45
2018-02-24T11:47:35.234Z,58.53
2018-02-24T11:50:08.770Z,54.85
2018-02-24T11:52:41.434Z,59.10
2018-02-24T11:55:31.919Z,50.08
2018-02-24T11:58:14.508Z,52.67
2018-02-24T12:00:47.711Z,58.87
2018-02-24T12:06:54.874Z,51.90
2018-02-24T12:09:25.798Z,52.38
2018-02-24T12:12:01.984Z,53.33
2018-02-24T12:14:33.581Z,57.40
2018-02-24T12:17:06.346Z,59.60
2018-02-24T12:19:38.119Z,52.22
2018-02-24T12:22:10.637Z,56.45
2018-02-24T12:24:49.699Z,54.88
2018-02-24T12:27:20.962Z,55.78
2018-02-24T12:29:52.272Z,53.22
2018-02-24T12:32:22.561Z,50.42
2018-02-24T12:34:55.257Z,52.60
2018-02-24T12:37:32.533Z,60.58
2018-02-24T12:40:26.357Z,50.53
2018-02-24T12:43:07.396Z,52.90
2018-02-24T12:45:43.577Z,52.95
2018-02-24T12:48:22.514Z,52.05
2018-02-24T12:51:27.016Z,54.22
2018-02-24T12:54:14.076Z,50.55
2018-02-24T12:56:46.862Z,54.45
2018-02-24T12:59:19.494Z,53.58
2018-02-24T13:02:04.102Z,56.10
2018-02-24T13:04:37.431Z,55.67
2018-02-24T13:07:17.489Z,55.25
2018-02-24T13:09:50.737Z,46.63
2018-02-24T13:12:59.858Z,50.35
2018-02-24T13:15:36.249Z,49.53
2018-02-24T13:18:09.866Z,45.60
2018-02-24T13:20:51.327Z,45.90
2018-02-24T13:24:47.132Z,48.42
2018-02-24T13:27:21.748Z,46.83
2018-02-24T13:30:01.903Z,49.73
2018-02-24T13:33:33.697Z,50.45
2018-02-24T13:36:07.594Z,46.37
2018-02-24T13:38:40.320Z,46.30
2018-02-24T13:41:24.333Z,49.80
2018-02-24T13:44:03.537Z,46.97
2018-02-24T13:46:41.461Z,49.97
2018-02-24T13:49:14.998Z,46.77
2018-02-24T13:51:48.146Z,46.65
2018-02-24T13:54:21.756Z,45.70
2018-02-24T13:56:54.619Z,44.10
2018-02-24T13:59:33.715Z,46.55
2018-02-24T14:02:14.696Z,45.00
2018-02-24T14:04:49.641Z,42.92
2018-02-24T14:07:28.907Z,42.88
2018-02-24T14:12:48.915Z,41.15
2018-02-24T14:15:20.062Z,42.47
2018-02-24T14:17:52.628Z,40.33
2018-02-24T14:20:24.095Z,43.40
2018-02-24T14:22:55.185Z,39.97
2018-02-24T14:25:26.708Z,41.47
2018-02-24T14:27:59.902Z,39.67
2018-02-24T14:30:30.729Z,38.33
2018-02-24T14:35:46.337Z,42.00
2018-02-24T14:38:19.535Z,38.50
2018-02-24T14:40:50.140Z,34.50
2018-02-24T14:43:21.184Z,34.97
2018-02-24T14:45:51.916Z,35.15
2018-02-24T14:48:24.567Z,34.15
2018-02-24T14:50:56.143Z,36.90
2018-02-24T14:53:27.289Z,32.53
2018-02-24T14:55:59.650Z,33.70
2018-02-24T15:02:24.004Z,27.95
2018-02-24T15:04:55.585Z,31.00
2018-02-24T15:07:26.417Z,27.80
2018-02-24T15:09:56.966Z,35.92
2018-02-24T15:12:29.637Z,30.05
2018-02-24T15:15:03.382Z,30.20
2018-02-24T15:17:34.503Z,27.25
2018-02-24T15:21:42.019Z,29.52
2018-02-24T15:24:13.556Z,26.98
2018-02-24T15:27:04.599Z,26.73
2018-02-24T15:29:37.075Z,30.62
2018-02-24T15:32:11.506Z,23.30
2018-02-24T15:34:41.665Z,27.23
2018-02-24T15:37:12.227Z,26.80
2018-02-24T15:39:43.753Z,23.90
2018-02-24T15:42:14.988Z,30.85
2018-02-24T15:44:45.765Z,30.30
2018-02-24T15:47:16.542Z,27.00
2018-02-24T15:49:47.380Z,23.12
2018-02-24T15:52:18.288Z,23.70
2018-02-24T15:54:50.661Z,26.08
2018-02-24T15:57:25.079Z,28.33
2018-02-24T16:00:07.034Z,24.20
2018-02-24T16:02:38.604Z,25.25
2018-02-24T16:05:12.099Z,22.42
2018-02-24T16:08:07.344Z,25.15
2018-02-24T16:10:38.176Z,28.27
2018-02-24T16:13:09.606Z,24.55
2018-02-24T16:15:40.536Z,23.73
2018-02-24T16:18:19.137Z,25.50
2018-02-24T16:20:54.135Z,18.70
2018-02-24T16:23:25.823Z,20.47
2018-02-24T16:29:13.001Z,23.85
2018-02-24T16:31:48.666Z,24.90
2018-02-24T16:34:20.971Z,18.63
2018-02-24T16:36:58.806Z,22.20
2018-02-24T16:39:39.869Z,21.75
2018-02-24T16:42:23.177Z,24.83
2018-02-24T16:44:53.567Z,23.73
2018-02-24T16:47:24.956Z,20.60
2018-02-24T16:49:57.352Z,22.15
2018-02-24T16:52:27.950Z,19.37
2018-02-24T16:54:58.905Z,22.27
2018-02-24T16:57:29.761Z,23.67
2018-02-24T17:00:01.137Z,24.57
2018-02-24T17:02:31.853Z,22.63
2018-02-24T17:05:13.027Z,21.87
2018-02-24T17:07:44.644Z,25.58
2018-02-24T17:13:02.935Z,27.52
2018-02-24T17:15:35.334Z,27.33
2018-02-24T17:18:08.023Z,30.05
2018-02-24T17:20:42.481Z,25.90
2018-02-24T17:23:23.028Z,28.90
2018-02-24T17:26:27.604Z,24.37
2018-02-24T17:29:03.370Z,31.37
2018-02-24T17:31:44.258Z,33.65
2018-02-24T17:34:22.367Z,29.90
2018-02-24T17:37:05.057Z,28.48
2018-02-24T17:39:42.753Z,28.08
2018-02-24T17:42:22.012Z,31.50
2018-02-24T17:44:58.264Z,34.23
2018-02-24T17:50:17.738Z,31.87
2018-02-24T17:53:21.154Z,35.25
2018-02-24T17:55:59.778Z,32.35
2018-02-24T17:58:32.527Z,30.50
2018-02-24T18:01:04.005Z,31.98
2018-02-24T18:03:42.059Z,30.12
2018-02-24T18:06:17.478Z,30.33
2018-02-24T18:09:00.846Z,32.83
2018-02-24T18:11:34.108Z,37.30
2018-02-24T18:14:05.721Z,33.25
2018-02-24T18:16:36.590Z,33.10
2018-02-24T18:19:29.696Z,31.95
2018-02-24T18:22:01.352Z,29.70
2018-02-24T18:24:32.399Z,30.35
2018-02-24T18:27:03.435Z,29.57
2018-02-24T18:29:53.503Z,29.02
2018-02-24T18:32:26.255Z,30.48
2018-02-24T18:34:56.701Z,30.27
2018-02-24T18:37:28.901Z,28.90
2018-02-24T18:40:01.005Z,29.20
2018-02-24T18:42:31.204Z,31.30
2018-02-24T18:45:03.182Z,30.15
2018-02-24T18:47:37.859Z,26.80
2018-02-24T18:50:10.359Z,30.48
2018-02-24T18:56:19.120Z,29.67
2018-02-24T18:58:51.358Z,33.60
2018-02-24T19:01:23.963Z,31.12
2018-02-24T19:03:55.227Z,32.42
2018-02-24T19:06:27.984Z,28.12
2018-02-24T19:08:59.521Z,25.50
2018-02-24T19:11:30.840Z,30.23
2018-02-24T19:14:06.615Z,27.50
2018-02-24T19:16:38.247Z,32.60
2018-02-24T19:20:34.943Z,29.47
2018-02-24T19:23:07.357Z,25.43
2018-02-24T19:25:41.560Z,26.15
2018-02-24T19:28:13.797Z,24.25
2018-02-24T19:30:44.165Z,27.60
2018-02-24T19:33:15.019Z,28.52
2018-02-24T19:35:46.121Z,25.27
2018-02-24T19:38:19.846Z,30.92
2018-02-24T19:40:51.914Z,24.40
2018-02-24T19:43:25.423Z,22.50
2018-02-24T19:46:04.929Z,28.35
2018-02-24T19:48:35.848Z,24.08
2018-02-24T19:51:09.128Z,25.57
2018-02-24T19:53:40.108Z,22.43
2018-02-24T19:56:13.537Z,25.10
2018-02-24T19:58:47.097Z,24.17
2018-02-24T20:01:19.928Z,25.25
2018-02-24T20:03:50.501Z,30.77
2018-02-24T20:06:21.518Z,26.27
2018-02-24T20:08:51.899Z,24.12
2018-02-24T20:11:22.697Z,25.50
2018-02-24T20:13:57.866Z,24.15
2018-02-24T20:16:31.407Z,27.10
2018-02-24T20:19:02.483Z,26.30
2018-02-24T20:21:33.082Z,27.50
2018-02-24T20:24:04.352Z,26.65
2018-02-24T20:26:35.212Z,25.02
2018-02-24T20:29:06.431Z,26.93
2018-02-24T20:31:38.460Z,29.47
2018-02-24T20:34:09.501Z,22.80
2018-02-24T20:36:40.065Z,26.98
2018-02-24T20:39:11.293Z,24.80
2018-02-24T20:41:45.690Z,26.87
2018-02-24T20:44:17.018Z,27.05
2018-02-24T20:46:48.276Z,25.00
2018-02-24T20:49:18.654Z,23.07
2018-02-24T20:51:49.662Z,26.07
2018-02-24T20:54:19.915Z,25.85
2018-02-24T20:56:50.944Z,21.02
2018-02-24T20:59:22.648Z,24.70
2018-02-24T21:01:52.896Z,22.52
2018-02-24T21:04:23.989Z,25.45
2018-02-24T21:06:55.001Z,23.05
2018-02-24T21:09:25.853Z,21.65
2018-02-24T21:11:56.673Z,21.13
2018-02-24T21:14:50.982Z,21.17
2018-02-24T21:17:27.093Z,18.23
2018-02-24T21:20:02.690Z,19.60
2018-02-24T21:30:33.110Z,20.37
2018-02-24T21:33:05.928Z,15.40
2018-02-24T21:35:36.949Z,15.70
2018-02-24T21:38:08.391Z,18.42
2018-02-24T21:40:41.395Z,14.23
2018-02-24T21:43:12.593Z,16.00
2018-02-24T21:45:43.818Z,17.60
2018-02-24T21:48:14.305Z,14.65
2018-02-24T21:50:46.598Z,15.03
2018-02-24T21:53:17.930Z,18.97
2018-02-24T21:55:53.113Z,12.93
2018-02-24T21:58:27.822Z,19.80
2018-02-24T22:00:59.312Z,12.60
2018-02-24T22:03:32.468Z,14.95
2018-02-24T22:06:04.186Z,14.00
2018-02-24T22:08:42.637Z,12.40
2018-02-24T22:11:14.337Z,19.02
2018-02-24T22:13:44.907Z,13.70
2018-02-24T22:16:18.746Z,13.88
2018-02-24T22:18:50.601Z,13.77
2018-02-24T22:21:21.823Z,11.60
2018-02-24T22:23:53.288Z,12.82
2018-02-24T22:26:23.928Z,14.25
2018-02-24T22:28:54.567Z,14.87
2018-02-24T22:31:25.773Z,12.02
2018-02-24T22:33:56.111Z,12.57
2018-02-24T22:36:29.102Z,13.02
2018-02-24T22:39:00.212Z,12.27
2018-02-24T22:41:32.065Z,11.35
2018-02-24T22:44:03.442Z,16.08
2018-02-24T22:46:34.403Z,14.87
2018-02-24T22:49:05.124Z,16.45
2018-02-24T22:51:48.851Z,12.90
2018-02-24T22:54:22.755Z,15.40
2018-02-24T22:56:54.125Z,13.50
2018-02-24T22:59:25.228Z,17.27
2018-02-24T23:01:56.617Z,15.63
2018-02-24T23:04:27.041Z,13.17
2018-02-24T23:06:58.323Z,17.73
2018-02-24T23:09:28.910Z,16.83
2018-02-24T23:11:59.460Z,13.05
2018-02-24T23:14:30.520Z,13.82
2018-02-24T23:17:01.388Z,15.57
2018-02-24T23:19:31.946Z,17.45
2018-02-24T23:22:02.560Z,15.57
2018-02-24T23:24:35.525Z,14.10
2018-02-24T23:27:09.837Z,13.67
2018-02-24T23:29:43.143Z,11.93
2018-02-24T23:32:15.093Z,17.10
2018-02-24T23:34:47.042Z,14.02
2018-02-24T23:37:18.349Z,17.15
2018-02-24T23:39:48.810Z,16.62
2018-02-24T23:42:19.345Z,15.43
2018-02-24T23:44:50.534Z,14.30
2018-02-24T23:47:21.425Z,18.27
2018-02-24T23:49:51.683Z,14.35
2018-02-24T23:52:22.097Z,15.43
2018-02-24T23:54:53.159Z,16.15
2018-02-24T23:57:23.680Z,14.95
2018-02-24T23:59:55.105Z,13.90
